Terminal Aerodrome Forecast
Issued by NWS Goodland, KS

Home | Current Version | Previous Version | Text Only | Print | Product List | Glossary On
Versions: 1 2 3 4 5 6 7 8 9 10 11 12 13 14 15 16
000
FTUS43 KGLD 160500
TAFGLD
TAF
KGLD 160520Z 1606/1706 18012KT P6SM SCT180 SCT250
     FM160800 25013KT P6SM SCT180 BKN250
     FM161000 32018G28KT P6SM SCT130 SCT180 BKN250
     FM161500 34025G37KT P6SM SCT250
     FM162100 34017G26KT P6SM FEW090 SCT250
     FM170000 36013KT P6SM FEW090 BKN200
     FM170200 04010KT P6SM BKN090=

USA.gov is the U.S. government's official web portal to all federal, state and local government web resources and services.